Time;durP1;ratioP1;P1;durP2;ratioP2;P2;SDS_P1;SDS_P2;PMS_P1;PMS_P2;Temp;Humidity;BMP_temperature;BMP_pressure;BME280_temperature;BME280_humidity;BME280_pressure;Samples;Min_cycle;Max_cycle;Signal;HPM_P1;HPM_P2
2023/04/20 00:00:47;;;;;;;7.00;4.50;;;;;;;;;;5056956;28;20098;-60
2023/04/20 00:03:13;;;;;;;10.20;4.60;;;;;;;;;;5055263;28;20072;-60
2023/04/20 00:05:39;;;;;;;10.77;4.93;;;;;;;;;;5057899;28;20064;-60
2023/04/20 00:08:06;;;;;;;9.03;5.03;;;;;;;;;;5059843;28;20068;-60
2023/04/20 00:10:32;;;;;;;8.50;5.07;;;;;;;;;;5063675;28;20040;-60
2023/04/20 00:12:58;;;;;;;8.50;4.53;;;;;;;;;;5060449;28;20131;-60
2023/04/20 00:15:24;;;;;;;8.10;5.00;;;;;;;;;;5063295;28;20147;-60
2023/04/20 00:17:50;;;;;;;7.27;5.27;;;;;;;;;;5064023;28;20605;-60
2023/04/20 00:20:17;;;;;;;8.10;5.10;;;;;;;;;;5060198;28;20053;-60
2023/04/20 00:22:43;;;;;;;8.33;5.17;;;;;;;;;;5062540;28;20057;-60
2023/04/20 00:25:09;;;;;;;8.37;5.07;;;;;;;;;;5058845;28;20039;-60
2023/04/20 00:27:35;;;;;;;7.60;5.33;;;;;;;;;;5058218;28;20038;-60
2023/04/20 00:30:01;;;;;;;8.10;4.60;;;;;;;;;;5060441;28;20127;-60
2023/04/20 00:32:29;;;;;;;10.60;5.37;;;;;;;;;;5062790;28;20037;-60
2023/04/20 00:34:55;;;;;;;8.77;4.77;;;;;;;;;;5056403;28;20049;-60
2023/04/20 00:37:21;;;;;;;10.00;5.17;;;;;;;;;;5061331;28;20048;-60
2023/04/20 00:39:47;;;;;;;8.47;4.67;;;;;;;;;;5059513;28;20032;-60
2023/04/20 00:42:13;;;;;;;11.17;5.00;;;;;;;;;;5064395;28;20059;-60
2023/04/20 00:44:39;;;;;;;7.23;4.43;;;;;;;;;;5056367;28;20036;-60
2023/04/20 00:47:05;;;;;;;7.70;5.27;;;;;;;;;;5061924;28;20029;-60
2023/04/20 00:49:31;;;;;;;11.07;5.17;;;;;;;;;;5061334;28;20148;-60
2023/04/20 00:51:58;;;;;;;6.60;4.47;;;;;;;;;;5065956;28;20040;-60
2023/04/20 00:54:25;;;;;;;9.77;5.30;;;;;;;;;;5092038;28;20048;-60
2023/04/20 00:56:51;;;;;;;8.13;5.20;;;;;;;;;;5091474;28;20067;-60
2023/04/20 00:59:17;;;;;;;8.80;5.27;;;;;;;;;;5091783;28;20509;-60
2023/04/20 01:01:44;;;;;;;7.77;5.40;;;;;;;;;;5091860;28;20049;-60
2023/04/20 01:04:10;;;;;;;10.87;6.13;;;;;;;;;;5091954;28;20044;-59
2023/04/20 01:06:36;;;;;;;10.27;5.27;;;;;;;;;;5091802;28;20066;-59
2023/04/20 01:09:02;;;;;;;8.70;4.83;;;;;;;;;;5087648;28;20424;-59
2023/04/20 01:11:28;;;;;;;9.30;4.60;;;;;;;;;;5071845;28;20521;-59
2023/04/20 01:13:54;;;;;;;11.97;6.40;;;;;;;;;;5071264;28;20045;-59
2023/04/20 01:16:21;;;;;;;8.23;4.03;;;;;;;;;;5071599;28;20525;-59
2023/04/20 01:18:48;;;;;;;7.63;4.40;;;;;;;;;;5071024;28;20741;-60
2023/04/20 01:21:16;;;;;;;6.93;4.50;;;;;;;;;;5051269;28;20049;-59
2023/04/20 01:23:42;;;;;;;7.53;3.97;;;;;;;;;;5050657;28;20130;-60
2023/04/20 01:26:09;;;;;;;8.07;4.13;;;;;;;;;;5051054;28;20045;-59
2023/04/20 01:28:35;;;;;;;6.70;3.90;;;;;;;;;;5049721;28;20056;-59
2023/04/20 01:31:05;;;;;;;8.43;3.90;;;;;;;;;;5054585;28;20040;-60
2023/04/20 01:33:31;;;;;;;7.03;3.70;;;;;;;;;;5070790;28;20110;-59
2023/04/20 01:35:57;;;;;;;5.70;3.30;;;;;;;;;;5070072;28;20132;-59
2023/04/20 01:38:23;;;;;;;8.90;3.00;;;;;;;;;;5071125;28;20178;-59
2023/04/20 01:40:50;;;;;;;5.47;2.97;;;;;;;;;;5070271;28;20590;-60
2023/04/20 01:43:17;;;;;;;5.53;3.27;;;;;;;;;;5070842;28;20040;-60
2023/04/20 01:45:43;;;;;;;5.07;2.77;;;;;;;;;;5070496;28;20383;-59
2023/04/20 01:48:09;;;;;;;7.83;2.80;;;;;;;;;;5070328;28;20051;-59
2023/04/20 01:50:35;;;;;;;5.93;2.80;;;;;;;;;;5070726;28;20498;-60
2023/04/20 01:53:01;;;;;;;5.53;2.70;;;;;;;;;;5070546;28;20087;-59
2023/04/20 01:55:27;;;;;;;8.03;2.67;;;;;;;;;;5070592;28;20415;-59
2023/04/20 01:57:53;;;;;;;5.63;3.03;;;;;;;;;;5070320;28;20045;-60
2023/04/20 02:00:19;;;;;;;6.03;2.30;;;;;;;;;;5065475;28;20495;-60
2023/04/20 02:02:45;;;;;;;4.33;2.37;;;;;;;;;;5050207;28;20044;-59
2023/04/20 02:05:11;;;;;;;7.50;3.20;;;;;;;;;;5050635;28;20178;-60
2023/04/20 02:07:37;;;;;;;5.87;2.63;;;;;;;;;;5050039;28;20076;-60
2023/04/20 02:10:04;;;;;;;6.83;2.60;;;;;;;;;;5050544;28;20048;-60
2023/04/20 02:12:30;;;;;;;4.13;2.30;;;;;;;;;;5050317;28;20407;-60
2023/04/20 02:14:56;;;;;;;8.00;3.00;;;;;;;;;;5050411;28;20182;-60
2023/04/20 02:17:23;;;;;;;6.07;2.40;;;;;;;;;;5050221;28;20436;-60
2023/04/20 02:19:49;;;;;;;5.87;2.07;;;;;;;;;;5050148;28;20100;-60
2023/04/20 02:22:15;;;;;;;7.63;2.50;;;;;;;;;;5056241;28;21442;-60
2023/04/20 02:24:42;;;;;;;4.93;2.10;;;;;;;;;;5069990;28;20541;-60
2023/04/20 02:27:08;;;;;;;4.60;2.53;;;;;;;;;;5070008;28;20040;-60
2023/04/20 02:29:35;;;;;;;8.10;2.97;;;;;;;;;;5065821;28;20426;-60
2023/04/20 02:32:01;;;;;;;7.87;2.23;;;;;;;;;;5047573;28;20056;-60
2023/04/20 02:34:27;;;;;;;4.90;2.43;;;;;;;;;;5050312;28;20045;-60
2023/04/20 02:36:53;;;;;;;4.07;2.13;;;;;;;;;;5049715;28;20110;-60
2023/04/20 02:39:19;;;;;;;6.27;3.00;;;;;;;;;;5049976;28;20048;-60
2023/04/20 02:41:45;;;;;;;5.77;2.23;;;;;;;;;;5049848;28;20053;-60
2023/04/20 02:44:11;;;;;;;5.40;2.50;;;;;;;;;;5049449;28;20037;-59
2023/04/20 02:46:37;;;;;;;6.87;2.17;;;;;;;;;;5049779;28;20048;-60
2023/04/20 02:49:03;;;;;;;8.17;2.27;;;;;;;;;;5049958;28;20064;-60
2023/04/20 02:51:30;;;;;;;5.90;2.50;;;;;;;;;;5049389;28;20056;-60
2023/04/20 02:53:56;;;;;;;6.43;3.07;;;;;;;;;;5049382;28;20045;-60
2023/04/20 02:56:23;;;;;;;4.03;2.50;;;;;;;;;;5049793;28;20962;-59
2023/04/20 02:58:50;;;;;;;6.77;2.47;;;;;;;;;;5048727;28;20423;-60
2023/04/20 03:01:17;;;;;;;3.43;2.00;;;;;;;;;;5062385;28;20495;-60
2023/04/20 03:03:43;;;;;;;8.10;2.40;;;;;;;;;;5068112;28;20047;-59
2023/04/20 03:06:09;;;;;;;6.03;2.60;;;;;;;;;;5067854;28;20047;-60
2023/04/20 03:08:35;;;;;;;5.60;2.50;;;;;;;;;;5066947;28;20041;-59
2023/04/20 03:11:01;;;;;;;3.43;2.20;;;;;;;;;;5053163;28;20032;-59
2023/04/20 03:13:27;;;;;;;5.60;2.47;;;;;;;;;;5046216;28;20044;-59
2023/04/20 03:15:53;;;;;;;8.73;2.67;;;;;;;;;;5047751;28;20052;-59
2023/04/20 03:18:19;;;;;;;5.13;2.33;;;;;;;;;;5047660;28;20048;-59
2023/04/20 03:20:45;;;;;;;9.13;2.30;;;;;;;;;;5047607;28;20063;-59
2023/04/20 03:23:11;;;;;;;7.83;2.50;;;;;;;;;;5063623;28;20548;-59
2023/04/20 03:25:37;;;;;;;6.83;2.17;;;;;;;;;;5067717;28;20057;-60
2023/04/20 03:28:03;;;;;;;3.73;2.33;;;;;;;;;;5067210;28;20067;-60
2023/04/20 03:30:29;;;;;;;9.10;2.50;;;;;;;;;;5068136;28;20174;-60
2023/04/20 03:32:55;;;;;;;5.57;2.10;;;;;;;;;;5069055;28;20101;-60
2023/04/20 03:35:21;;;;;;;6.43;2.10;;;;;;;;;;5069067;28;20044;-59
2023/04/20 03:37:47;;;;;;;3.83;2.50;;;;;;;;;;5068319;28;20648;-59
2023/04/20 03:40:13;;;;;;;8.80;2.10;;;;;;;;;;5067618;28;20076;-59
2023/04/20 03:42:40;;;;;;;5.43;2.67;;;;;;;;;;5066431;28;20126;-60
2023/04/20 03:45:06;;;;;;;6.37;2.37;;;;;;;;;;5058144;28;20048;-59
2023/04/20 03:47:32;;;;;;;7.00;2.93;;;;;;;;;;5055200;28;20383;-60
2023/04/20 03:49:58;;;;;;;8.93;2.33;;;;;;;;;;5054752;28;20141;-60
2023/04/20 03:52:25;;;;;;;4.77;2.90;;;;;;;;;;5055378;28;20048;-59
2023/04/20 03:54:51;;;;;;;6.13;2.23;;;;;;;;;;5055259;28;20045;-59
2023/04/20 03:57:17;;;;;;;4.53;2.17;;;;;;;;;;5055116;28;20495;-59
2023/04/20 03:59:43;;;;;;;4.87;2.00;;;;;;;;;;5055322;28;20040;-59
2023/04/20 04:02:12;;;;;;;6.50;2.10;;;;;;;;;;5068622;28;20052;-60
2023/04/20 04:04:38;;;;;;;7.67;2.47;;;;;;;;;;5056537;28;20049;-60
2023/04/20 04:07:04;;;;;;;6.83;2.40;;;;;;;;;;5067597;28;20053;-60
2023/04/20 04:09:30;;;;;;;5.73;2.33;;;;;;;;;;5071491;28;20106;-60
2023/04/20 04:11:56;;;;;;;4.43;1.90;;;;;;;;;;5075056;28;20090;-60
2023/04/20 04:14:22;;;;;;;6.50;2.43;;;;;;;;;;5075329;28;20040;-60
2023/04/20 04:16:48;;;;;;;6.70;2.37;;;;;;;;;;5075002;28;20560;-60
2023/04/20 04:19:14;;;;;;;5.40;2.30;;;;;;;;;;5058730;28;20077;-60
2023/04/20 04:21:40;;;;;;;6.83;2.27;;;;;;;;;;5054419;28;20045;-60
2023/04/20 04:24:07;;;;;;;6.50;2.87;;;;;;;;;;5055464;28;20061;-60
2023/04/20 04:26:33;;;;;;;8.93;2.57;;;;;;;;;;5055000;28;20044;-60
2023/04/20 04:28:59;;;;;;;5.47;2.30;;;;;;;;;;5054117;28;20064;-60
2023/04/20 04:31:26;;;;;;;7.23;2.97;;;;;;;;;;5055012;28;20052;-60
2023/04/20 04:33:52;;;;;;;5.57;2.20;;;;;;;;;;5055299;28;20060;-60
2023/04/20 04:36:18;;;;;;;7.77;2.33;;;;;;;;;;5054515;28;20056;-60
2023/04/20 04:38:44;;;;;;;4.50;2.50;;;;;;;;;;5055261;28;20598;-60
2023/04/20 04:41:14;;;;;;;6.50;2.93;;;;;;;;;;5054789;28;20538;-61
2023/04/20 04:43:40;;;;;;;7.93;3.47;;;;;;;;;;5068307;28;20499;-60
2023/04/20 04:46:09;;;;;;;6.13;2.30;;;;;;;;;;5074836;28;20052;-60
2023/04/20 04:48:36;;;;;;;3.90;1.93;;;;;;;;;;5074320;28;20045;-60
2023/04/20 04:51:03;;;;;;;7.53;2.80;;;;;;;;;;5074748;28;20135;-60
2023/04/20 04:53:29;;;;;;;5.83;2.60;;;;;;;;;;5061506;28;20051;-60
2023/04/20 04:55:55;;;;;;;4.70;2.60;;;;;;;;;;5057485;28;20070;-60
2023/04/20 04:58:21;;;;;;;8.97;3.23;;;;;;;;;;5070228;28;20047;-60
2023/04/20 05:00:47;;;;;;;6.23;2.83;;;;;;;;;;5058044;28;20692;-59
2023/04/20 05:03:13;;;;;;;4.20;2.00;;;;;;;;;;5051443;28;20048;-60
2023/04/20 05:05:39;;;;;;;5.90;2.73;;;;;;;;;;5051575;28;20041;-60
2023/04/20 05:08:05;;;;;;;4.67;2.30;;;;;;;;;;5051653;28;20053;-60
2023/04/20 05:10:31;;;;;;;5.53;2.27;;;;;;;;;;5066044;28;20048;-60
2023/04/20 05:12:59;;;;;;;5.37;2.47;;;;;;;;;;5064678;28;20048;-60
2023/04/20 05:15:25;;;;;;;8.33;2.43;;;;;;;;;;5059287;28;20084;-60
2023/04/20 05:17:51;;;;;;;6.33;2.87;;;;;;;;;;5059006;28;20056;-60
2023/04/20 05:20:17;;;;;;;7.10;2.80;;;;;;;;;;5061340;28;20531;-59
2023/04/20 05:22:44;;;;;;;4.23;2.57;;;;;;;;;;5059807;28;20138;-59
2023/04/20 05:25:10;;;;;;;5.60;2.37;;;;;;;;;;5060275;28;20044;-60
2023/04/20 05:27:36;;;;;;;6.60;2.37;;;;;;;;;;5060101;28;20048;-59
2023/04/20 05:30:03;;;;;;;5.33;2.37;;;;;;;;;;5058591;28;20407;-60
2023/04/20 05:32:29;;;;;;;6.70;2.80;;;;;;;;;;5059072;28;20048;-59
2023/04/20 05:34:55;;;;;;;3.90;2.13;;;;;;;;;;5058609;28;20087;-59
2023/04/20 05:37:21;;;;;;;7.97;2.40;;;;;;;;;;5057511;28;20160;-59
2023/04/20 05:39:47;;;;;;;6.63;3.40;;;;;;;;;;5058046;28;20090;-59
2023/04/20 05:42:13;;;;;;;9.03;3.33;;;;;;;;;;5060176;28;20041;-59
2023/04/20 05:44:40;;;;;;;5.87;2.37;;;;;;;;;;5058145;28;20503;-59
2023/04/20 05:47:07;;;;;;;7.13;2.97;;;;;;;;;;5059642;28;20053;-59
2023/04/20 05:49:33;;;;;;;5.87;3.10;;;;;;;;;;5055117;28;20048;-60
2023/04/20 05:52:00;;;;;;;6.30;3.10;;;;;;;;;;5062261;28;20037;-60
2023/04/20 05:54:27;;;;;;;5.23;2.90;;;;;;;;;;5059594;28;20048;-60
2023/04/20 05:56:53;;;;;;;6.03;2.70;;;;;;;;;;5056222;28;20043;-60
2023/04/20 05:59:19;;;;;;;7.07;2.97;;;;;;;;;;5051930;28;20048;-59
2023/04/20 06:01:46;;;;;;;8.00;2.50;;;;;;;;;;5057936;28;20048;-59
2023/04/20 06:04:12;;;;;;;4.50;2.70;;;;;;;;;;5055041;28;20048;-59
2023/04/20 06:06:38;;;;;;;5.03;2.73;;;;;;;;;;5053653;28;20135;-59
2023/04/20 06:09:04;;;;;;;7.57;3.17;;;;;;;;;;5070219;28;20044;-59
2023/04/20 06:11:30;;;;;;;5.97;3.10;;;;;;;;;;5068344;28;20080;-60
2023/04/20 06:13:56;;;;;;;5.60;3.00;;;;;;;;;;5049243;28;20048;-59
2023/04/20 06:16:22;;;;;;;6.80;3.10;;;;;;;;;;5059150;28;20045;-59
2023/04/20 06:18:49;;;;;;;15.43;4.30;;;;;;;;;;5057525;28;20414;-60
2023/04/20 06:21:16;;;;;;;5.93;3.17;;;;;;;;;;5059953;28;20052;-60
2023/04/20 06:23:43;;;;;;;4.83;3.03;;;;;;;;;;5056078;28;20024;-60
2023/04/20 06:26:09;;;;;;;6.33;4.10;;;;;;;;;;5058236;28;20098;-60
2023/04/20 06:28:36;;;;;;;6.47;4.43;;;;;;;;;;5058178;28;20176;-60
2023/04/20 06:31:05;;;;;;;6.30;3.23;;;;;;;;;;5060906;28;20044;-60
2023/04/20 06:33:32;;;;;;;6.53;3.50;;;;;;;;;;5056589;28;20047;-62
2023/04/20 06:35:58;;;;;;;6.60;3.97;;;;;;;;;;5057702;28;20045;-61
2023/04/20 06:38:24;;;;;;;9.07;4.40;;;;;;;;;;5064148;28;20053;-61
2023/04/20 06:40:50;;;;;;;10.00;4.63;;;;;;;;;;5067042;28;20128;-61
2023/04/20 06:43:16;;;;;;;20.53;4.90;;;;;;;;;;5062123;28;20123;-61
2023/04/20 06:45:42;;;;;;;11.07;4.53;;;;;;;;;;5057050;28;20041;-61
2023/04/20 06:48:08;;;;;;;16.40;4.87;;;;;;;;;;5063079;28;20036;-62
2023/04/20 06:50:34;;;;;;;18.20;6.90;;;;;;;;;;5062010;28;20044;-62
2023/04/20 06:53:02;;;;;;;11.93;5.17;;;;;;;;;;5059533;28;20507;-62
2023/04/20 06:55:28;;;;;;;13.00;5.77;;;;;;;;;;5057347;28;20045;-62
2023/04/20 06:57:54;;;;;;;13.53;6.60;;;;;;;;;;5056583;28;20043;-62
2023/04/20 07:00:20;;;;;;;14.10;6.40;;;;;;;;;;5057059;28;20541;-62
2023/04/20 07:02:47;;;;;;;15.70;6.67;;;;;;;;;;5059657;28;20055;-62
2023/04/20 07:05:14;;;;;;;11.83;6.03;;;;;;;;;;5054823;28;20045;-62
2023/04/20 07:07:40;;;;;;;12.63;5.60;;;;;;;;;;5060664;28;20471;-62
2023/04/20 07:10:10;;;;;;;17.07;6.10;;;;;;;;;;5063257;28;20156;-62
2023/04/20 07:12:36;;;;;;;10.23;5.97;;;;;;;;;;5067685;28;20037;-62
2023/04/20 07:15:03;;;;;;;9.07;5.43;;;;;;;;;;5064830;28;20032;-62
2023/04/20 07:17:29;;;;;;;14.07;5.83;;;;;;;;;;5068615;28;20123;-62
2023/04/20 07:19:56;;;;;;;10.90;6.57;;;;;;;;;;5068556;28;20049;-62
2023/04/20 07:22:22;;;;;;;14.87;6.63;;;;;;;;;;5065537;28;20052;-62
2023/04/20 07:24:49;;;;;;;12.57;6.40;;;;;;;;;;5058020;28;20119;-62
2023/04/20 07:27:15;;;;;;;16.57;7.10;;;;;;;;;;5059372;28;20044;-62
2023/04/20 07:29:41;;;;;;;18.10;6.97;;;;;;;;;;5066647;28;20049;-62
2023/04/20 07:32:07;;;;;;;7.57;5.40;;;;;;;;;;5066026;28;20391;-62
2023/04/20 07:34:33;;;;;;;12.10;6.00;;;;;;;;;;5059199;28;20045;-62
2023/04/20 07:36:59;;;;;;;7.93;5.20;;;;;;;;;;5068932;28;20063;-62
2023/04/20 07:39:27;;;;;;;14.07;5.43;;;;;;;;;;5068653;28;20037;-62
2023/04/20 07:41:53;;;;;;;9.27;5.67;;;;;;;;;;5058615;28;20057;-62
2023/04/20 07:44:19;;;;;;;10.50;5.93;;;;;;;;;;5064147;28;20071;-62
2023/04/20 07:46:45;;;;;;;10.83;5.63;;;;;;;;;;5068489;28;20709;-61
2023/04/20 07:49:11;;;;;;;11.00;5.87;;;;;;;;;;5064407;28;20044;-61
2023/04/20 07:51:37;;;;;;;14.77;5.90;;;;;;;;;;5058800;28;20040;-62
2023/04/20 07:54:03;;;;;;;10.00;5.30;;;;;;;;;;5059204;28;20569;-61
2023/04/20 07:56:30;;;;;;;10.13;5.80;;;;;;;;;;5059599;28;20499;-61
2023/04/20 07:58:56;;;;;;;10.13;6.20;;;;;;;;;;5060918;28;20040;-61
2023/04/20 08:01:24;;;;;;;8.17;5.23;;;;;;;;;;5059016;28;20039;-61
2023/04/20 08:03:50;;;;;;;11.80;5.80;;;;;;;;;;5058913;28;20040;-61
2023/04/20 08:06:16;;;;;;;10.47;6.30;;;;;;;;;;5060643;28;20123;-61
2023/04/20 08:08:42;;;;;;;12.83;6.30;;;;;;;;;;5055184;28;20041;-61
2023/04/20 08:11:08;;;;;;;14.33;6.13;;;;;;;;;;5062080;28;20166;-60
2023/04/20 08:13:37;;;;;;;10.57;5.87;;;;;;;;;;5054117;28;20052;-61
2023/04/20 08:16:04;;;;;;;12.17;6.17;;;;;;;;;;5059159;28;20037;-60
2023/04/20 08:18:30;;;;;;;10.33;5.30;;;;;;;;;;5060438;28;20126;-60
2023/04/20 08:20:56;;;;;;;8.53;5.30;;;;;;;;;;5059441;28;20060;-61
2023/04/20 08:23:26;;;;;;;9.27;5.07;;;;;;;;;;5058243;28;20535;-61
2023/04/20 08:25:53;;;;;;;14.07;5.80;;;;;;;;;;5057436;28;20059;-60
2023/04/20 08:28:19;;;;;;;14.40;6.10;;;;;;;;;;5059037;28;20718;-60
2023/04/20 08:30:45;;;;;;;12.17;6.20;;;;;;;;;;5060902;28;20060;-60
2023/04/20 08:33:12;;;;;;;11.37;5.70;;;;;;;;;;5061453;28;20048;-61
2023/04/20 08:35:38;;;;;;;8.80;5.70;;;;;;;;;;5062606;28;20081;-60
2023/04/20 08:38:04;;;;;;;11.70;5.67;;;;;;;;;;5059857;28;20040;-60
2023/04/20 08:40:31;;;;;;;10.13;5.20;;;;;;;;;;5062439;28;20045;-60
2023/04/20 08:43:00;;;;;;;14.23;6.03;;;;;;;;;;5066090;28;20044;-60
2023/04/20 08:45:26;;;;;;;12.00;5.87;;;;;;;;;;5061621;28;20526;-60
2023/04/20 08:47:52;;;;;;;11.27;5.87;;;;;;;;;;5058233;28;20079;-60
2023/04/20 08:50:19;;;;;;;13.97;6.10;;;;;;;;;;5062623;28;20048;-60
2023/04/20 08:52:45;;;;;;;9.80;5.30;;;;;;;;;;5063117;28;20036;-60
2023/04/20 08:55:15;;;;;;;10.73;5.83;;;;;;;;;;5057914;28;20044;-60
2023/04/20 08:57:41;;;;;;;12.13;5.83;;;;;;;;;;5062133;28;20044;-60
2023/04/20 09:00:09;;;;;;;15.90;6.23;;;;;;;;;;5062696;28;20867;-60
2023/04/20 09:02:36;;;;;;;10.90;5.13;;;;;;;;;;5061780;28;20080;-60
2023/04/20 09:05:03;;;;;;;10.40;5.27;;;;;;;;;;5062245;28;20514;-59
2023/04/20 09:07:30;;;;;;;10.40;6.17;;;;;;;;;;5062565;28;20115;-60
2023/04/20 09:09:56;;;;;;;10.30;5.87;;;;;;;;;;5061069;28;20037;-60
2023/04/20 09:12:23;;;;;;;10.07;5.47;;;;;;;;;;5062091;28;20048;-61
2023/04/20 09:14:50;;;;;;;12.57;6.07;;;;;;;;;;5060819;28;20048;-60
2023/04/20 09:17:16;;;;;;;12.90;5.50;;;;;;;;;;5062592;28;20790;-60
2023/04/20 09:19:51;;;;;;;10.63;6.10;;;;;;;;;;5059749;28;20037;-60
2023/04/20 09:22:17;;;;;;;7.60;5.53;;;;;;;;;;5059930;28;20813;-60
2023/04/20 09:24:43;;;;;;;15.57;6.33;;;;;;;;;;5063322;28;20128;-60
2023/04/20 09:27:16;;;;;;;10.03;6.30;;;;;;;;;;5063638;28;20415;-60
2023/04/20 09:29:42;;;;;;;10.30;5.45;;;;;;;;;;5061048;28;20127;-60
2023/04/20 09:32:31;;;;;;;15.17;6.20;;;;;;;;;;5068090;28;20072;-60
2023/04/20 09:34:57;;;;;;;10.80;5.37;;;;;;;;;;5069998;28;20048;-60
2023/04/20 09:37:24;;;;;;;12.17;5.60;;;;;;;;;;5071074;28;20056;-61
2023/04/20 09:39:50;;;;;;;10.90;5.90;;;;;;;;;;5070504;28;20483;-59
2023/04/20 09:42:17;;;;;;;9.93;4.77;;;;;;;;;;5065692;28;20048;-59
2023/04/20 09:44:43;;;;;;;9.97;5.50;;;;;;;;;;5069822;28;20224;-60
2023/04/20 09:47:15;;;;;;;11.63;6.03;;;;;;;;;;5070722;28;20076;-59
2023/04/20 09:49:44;;;;;;;13.20;5.60;;;;;;;;;;5070228;28;20448;-60
2023/04/20 09:52:11;;;;;;;10.53;5.47;;;;;;;;;;5070573;28;20193;-59
2023/04/20 09:54:37;;;;;;;10.73;6.13;;;;;;;;;;5070275;28;20089;-59
2023/04/20 09:57:05;;;;;;;12.50;5.97;;;;;;;;;;5070107;28;20036;-59
2023/04/20 09:59:32;;;;;;;10.03;5.40;;;;;;;;;;5070303;28;20045;-59
2023/04/20 10:01:58;;;;;;;9.20;5.67;;;;;;;;;;5070353;28;20055;-59
2023/04/20 10:04:24;;;;;;;7.60;5.17;;;;;;;;;;5068160;28;20114;-59
2023/04/20 10:06:56;;;;;;;9.40;5.07;;;;;;;;;;5060761;28;20064;-60
2023/04/20 10:09:24;;;;;;;8.17;4.93;;;;;;;;;;5070072;28;20410;-60
2023/04/20 10:11:51;;;;;;;9.43;5.23;;;;;;;;;;5070024;28;20055;-60
2023/04/20 10:14:19;;;;;;;7.60;5.90;;;;;;;;;;5069827;28;20513;-60
2023/04/20 10:16:46;;;;;;;9.97;5.80;;;;;;;;;;5069914;28;20084;-60
2023/04/20 10:19:12;;;;;;;8.37;5.10;;;;;;;;;;5070040;28;20036;-60
2023/04/20 10:21:48;;;;;;;6.13;4.67;;;;;;;;;;5069181;28;20061;-60
2023/04/20 10:24:15;;;;;;;7.83;5.07;;;;;;;;;;5068763;28;20048;-60
2023/04/20 10:26:43;;;;;;;8.40;5.67;;;;;;;;;;5069338;28;20617;-59
2023/04/20 10:29:11;;;;;;;11.37;6.30;;;;;;;;;;5069659;28;20416;-60
2023/04/20 10:31:40;;;;;;;12.03;5.77;;;;;;;;;;5069938;28;20135;-59
2023/04/20 10:34:07;;;;;;;9.13;5.57;;;;;;;;;;5069771;28;20044;-59
2023/04/20 10:36:35;;;;;;;8.97;5.60;;;;;;;;;;5053370;28;20040;-60
2023/04/20 10:39:13;;;;;;;8.40;5.80;;;;;;;;;;5069535;28;20040;-60
2023/04/20 10:41:50;;;;;;;8.07;5.70;;;;;;;;;;5069194;28;20051;-59
2023/04/20 10:44:17;;;;;;;8.27;5.30;;;;;;;;;;5069283;28;20794;-61
2023/04/20 10:46:43;;;;;;;9.87;5.83;;;;;;;;;;5068802;28;20075;-59
2023/04/20 10:49:09;;;;;;;9.73;6.63;;;;;;;;;;5069514;28;20048;-60
2023/04/20 10:51:35;;;;;;;11.97;6.10;;;;;;;;;;5069018;28;20044;-60
2023/04/20 10:54:06;;;;;;;8.53;6.10;;;;;;;;;;5068041;28;20041;-59
2023/04/20 10:56:45;;;;;;;7.70;5.97;;;;;;;;;;5069437;28;20090;-59
2023/04/20 10:59:13;;;;;;;9.80;6.77;;;;;;;;;;5069457;28;20049;-60
2023/04/20 11:01:39;;;;;;;9.97;6.50;;;;;;;;;;5069006;28;20562;-60
2023/04/20 11:04:06;;;;;;;10.17;6.27;;;;;;;;;;5069126;28;20186;-60
2023/04/20 11:06:32;;;;;;;9.77;6.80;;;;;;;;;;5067740;28;20040;-60
2023/04/20 11:08:58;;;;;;;8.90;6.33;;;;;;;;;;5068385;28;20049;-60
2023/04/20 11:11:26;;;;;;;11.63;7.20;;;;;;;;;;5067649;28;20122;-60
2023/04/20 11:13:53;;;;;;;8.37;5.80;;;;;;;;;;5067669;28;20141;-59
2023/04/20 11:16:19;;;;;;;7.70;5.90;;;;;;;;;;5067909;28;20456;-60
2023/04/20 11:18:52;;;;;;;10.27;6.10;;;;;;;;;;5067743;28;20379;-60
2023/04/20 11:21:19;;;;;;;10.97;5.40;;;;;;;;;;5067765;28;20085;-60
2023/04/20 11:23:45;;;;;;;7.93;5.70;;;;;;;;;;5059259;28;20499;-60
2023/04/20 11:26:11;;;;;;;7.07;5.13;;;;;;;;;;5047891;28;20048;-60
2023/04/20 11:28:37;;;;;;;6.90;5.60;;;;;;;;;;5046711;28;20048;-60
2023/04/20 11:31:04;;;;;;;6.33;5.13;;;;;;;;;;5047096;28;20059;-60
2023/04/20 11:33:31;;;;;;;7.37;4.93;;;;;;;;;;5047338;28;20083;-60
2023/04/20 11:35:58;;;;;;;10.30;5.60;;;;;;;;;;5048771;28;20463;-60
2023/04/20 11:38:28;;;;;;;11.30;5.40;;;;;;;;;;5048766;28;20049;-60
2023/04/20 11:40:54;;;;;;;10.07;5.70;;;;;;;;;;5048679;28;20053;-60
2023/04/20 11:43:21;;;;;;;8.20;5.20;;;;;;;;;;5047325;28;20044;-60
2023/04/20 11:45:47;;;;;;;6.37;4.97;;;;;;;;;;5047558;28;20128;-60
2023/04/20 11:48:13;;;;;;;9.37;4.87;;;;;;;;;;5067984;28;20051;-61
2023/04/20 11:50:39;;;;;;;7.30;5.67;;;;;;;;;;5068351;28;20114;-61
2023/04/20 11:53:05;;;;;;;6.67;5.27;;;;;;;;;;5063642;28;20060;-61
2023/04/20 11:55:31;;;;;;;9.67;5.43;;;;;;;;;;5047500;28;20045;-60
2023/04/20 11:57:57;;;;;;;9.33;5.30;;;;;;;;;;5048068;28;20103;-60
2023/04/20 12:00:23;;;;;;;12.07;6.87;;;;;;;;;;5048064;28;20048;-60
2023/04/20 12:02:50;;;;;;;7.73;5.50;;;;;;;;;;5048325;28;20041;-60
2023/04/20 12:05:16;;;;;;;9.67;6.73;;;;;;;;;;5050837;28;20051;-60
2023/04/20 12:07:42;;;;;;;7.97;5.63;;;;;;;;;;5051695;28;20045;-60
2023/04/20 12:10:09;;;;;;;9.70;5.97;;;;;;;;;;5054385;28;20059;-60
2023/04/20 12:12:35;;;;;;;8.33;6.40;;;;;;;;;;5064326;28;20044;-60
2023/04/20 12:15:01;;;;;;;8.80;5.53;;;;;;;;;;5070933;28;20045;-60
2023/04/20 12:17:28;;;;;;;10.77;6.10;;;;;;;;;;5070399;28;20041;-60
2023/04/20 12:19:54;;;;;;;8.77;5.67;;;;;;;;;;5070247;28;20482;-61
2023/04/20 12:22:20;;;;;;;6.60;4.77;;;;;;;;;;5070336;28;20410;-60
2023/04/20 12:24:46;;;;;;;6.73;4.77;;;;;;;;;;5068023;28;20041;-60
2023/04/20 12:27:12;;;;;;;7.80;5.03;;;;;;;;;;5050715;28;20037;-60
2023/04/20 12:29:38;;;;;;;7.87;5.47;;;;;;;;;;5065479;28;20121;-60
2023/04/20 12:32:04;;;;;;;7.80;4.90;;;;;;;;;;5071473;28;20044;-60
2023/04/20 12:34:30;;;;;;;7.43;5.33;;;;;;;;;;5072110;28;20164;-60
2023/04/20 12:36:56;;;;;;;12.23;6.17;;;;;;;;;;5070665;28;20056;-60
2023/04/20 12:39:22;;;;;;;8.33;5.60;;;;;;;;;;5071760;28;20048;-60
2023/04/20 12:41:48;;;;;;;8.43;6.47;;;;;;;;;;5071288;28;20139;-60
2023/04/20 12:44:14;;;;;;;8.10;5.47;;;;;;;;;;5071713;28;20049;-60
2023/04/20 12:46:41;;;;;;;7.67;5.43;;;;;;;;;;5071507;28;20052;-60
2023/04/20 12:49:07;;;;;;;8.07;5.30;;;;;;;;;;5071756;28;20044;-60
2023/04/20 12:51:33;;;;;;;8.07;5.23;;;;;;;;;;5071223;28;20044;-60
2023/04/20 12:53:59;;;;;;;9.93;5.47;;;;;;;;;;5071185;28;20052;-60
2023/04/20 12:56:25;;;;;;;7.43;5.83;;;;;;;;;;5071446;28;20591;-60
2023/04/20 12:58:51;;;;;;;9.20;5.17;;;;;;;;;;5064385;28;20033;-60
2023/04/20 13:01:17;;;;;;;10.10;5.93;;;;;;;;;;5063524;28;20059;-60
2023/04/20 13:03:43;;;;;;;7.23;5.13;;;;;;;;;;5071107;28;20525;-61
2023/04/20 13:06:10;;;;;;;7.17;4.63;;;;;;;;;;5071045;28;20972;-60
2023/04/20 13:08:37;;;;;;;6.63;5.07;;;;;;;;;;5070966;28;20557;-61
2023/04/20 13:11:03;;;;;;;6.77;5.30;;;;;;;;;;5071206;28;20415;-60
2023/04/20 13:13:29;;;;;;;8.07;4.90;;;;;;;;;;5070935;28;20040;-58
2023/04/20 13:15:55;;;;;;;15.37;8.20;;;;;;;;;;5070264;28;20048;-60
2023/04/20 13:18:23;;;;;;;7.30;5.37;;;;;;;;;;5070556;28;20048;-61
2023/04/20 13:20:49;;;;;;;20.57;13.67;;;;;;;;;;5070954;28;20053;-60
2023/04/20 13:23:15;;;;;;;8.73;6.03;;;;;;;;;;5070763;28;20503;-60
2023/04/20 13:25:41;;;;;;;8.43;5.37;;;;;;;;;;5067883;28;20040;-60
2023/04/20 13:28:07;;;;;;;7.53;5.50;;;;;;;;;;5060546;28;20076;-60
2023/04/20 13:30:33;;;;;;;9.77;5.80;;;;;;;;;;5061216;28;20061;-60
2023/04/20 13:32:59;;;;;;;10.73;5.43;;;;;;;;;;5059538;28;20040;-60
2023/04/20 13:35:26;;;;;;;8.50;5.17;;;;;;;;;;5060721;28;20055;-60
2023/04/20 13:37:52;;;;;;;9.77;5.57;;;;;;;;;;5060342;28;20584;-60
2023/04/20 13:40:18;;;;;;;9.00;5.13;;;;;;;;;;5059594;28;20037;-61
2023/04/20 13:42:44;;;;;;;10.60;7.13;;;;;;;;;;5058824;28;20418;-60
2023/04/20 13:45:10;;;;;;;8.97;5.97;;;;;;;;;;5060065;28;20048;-61
2023/04/20 13:47:37;;;;;;;13.33;8.13;;;;;;;;;;5059298;28;20076;-60
2023/04/20 13:50:03;;;;;;;8.33;5.33;;;;;;;;;;5060199;28;20078;-61
2023/04/20 13:52:29;;;;;;;12.40;6.93;;;;;;;;;;5057319;28;20506;-61
2023/04/20 13:54:55;;;;;;;7.90;5.80;;;;;;;;;;5059737;28;20045;-60
2023/04/20 13:57:21;;;;;;;10.00;5.70;;;;;;;;;;5058742;28;20044;-60
2023/04/20 13:59:47;;;;;;;5.97;4.37;;;;;;;;;;5054557;28;20123;-61
2023/04/20 14:02:13;;;;;;;8.53;5.17;;;;;;;;;;5050252;28;20053;-61
2023/04/20 14:04:39;;;;;;;8.13;5.73;;;;;;;;;;5049417;28;20049;-60
2023/04/20 14:07:05;;;;;;;8.53;5.77;;;;;;;;;;5050310;28;20044;-61
2023/04/20 14:09:32;;;;;;;6.83;5.30;;;;;;;;;;5049567;28;20060;-61
2023/04/20 14:11:58;;;;;;;7.47;4.63;;;;;;;;;;5052449;28;20089;-61
2023/04/20 14:14:24;;;;;;;6.67;4.50;;;;;;;;;;5057832;28;20507;-61
2023/04/20 14:16:51;;;;;;;6.93;4.17;;;;;;;;;;5060084;28;20036;-61
2023/04/20 14:19:17;;;;;;;7.30;4.47;;;;;;;;;;5069041;28;20048;-61
2023/04/20 14:21:45;;;;;;;5.40;3.63;;;;;;;;;;5069998;28;20044;-61
2023/04/20 14:24:11;;;;;;;5.93;4.37;;;;;;;;;;5069657;28;20052;-61
2023/04/20 14:26:37;;;;;;;8.87;4.63;;;;;;;;;;5068411;28;20572;-61
2023/04/20 14:29:04;;;;;;;7.17;4.63;;;;;;;;;;5066119;28;20149;-59
2023/04/20 14:31:33;;;;;;;9.93;5.03;;;;;;;;;;5059492;28;20503;-61
2023/04/20 14:34:00;;;;;;;7.53;5.00;;;;;;;;;;5058640;28;20041;-61